Terminal Aerodrome Forecast
Issued by NWS Portland, ME

Current Version | Previous Version | Text Only | Print | Product List | Glossary On
Versions: 1 2 3 4 5 6 7 8 9 10 11 12 13 14 15 16 17 18 19 20 21 22 23 24 25
718
FTUS41 KGYX 272325
TAFCON
TAF
KCON 272325Z 2800/2824 13007KT P6SM SKC
     FM280200 00000KT 5SM HZ BKN250
     FM281100 29005KT P6SM SCT100 SCT250=

USA.gov is the U.S. government's official web portal to all federal, state and local government web resources and services.